createdAt,value
2023-05-12T00:00:29.000Z,283.71
2023-05-12T00:01:56.000Z,283.84
2023-05-12T00:04:02.000Z,283.77
2023-05-12T00:05:29.000Z,283.71
2023-05-12T00:07:35.000Z,283.77
2023-05-12T00:09:01.000Z,283.71
2023-05-12T00:11:07.000Z,283.65
2023-05-12T00:12:34.000Z,283.71
2023-05-12T00:14:40.000Z,283.65
2023-05-12T00:17:31.000Z,283.59
2023-05-12T00:18:57.000Z,283.59
2023-05-12T00:21:04.000Z,283.59
2023-05-12T00:22:30.000Z,283.59
2023-05-12T00:24:36.000Z,283.59
2023-05-12T00:26:03.000Z,283.52
2023-05-12T00:28:09.000Z,283.65
2023-05-12T00:29:35.000Z,283.71
2023-05-12T00:31:41.000Z,283.65
2023-05-12T00:33:08.000Z,283.77
2023-05-12T00:35:14.000Z,283.71
2023-05-12T00:36:41.000Z,283.77
2023-05-12T00:38:47.000Z,283.77
2023-05-12T00:40:13.000Z,283.71
2023-05-12T00:42:19.000Z,283.77
2023-05-12T00:43:46.000Z,283.84
2023-05-12T00:45:52.000Z,283.77
2023-05-12T00:47:18.000Z,283.77
2023-05-12T00:49:24.000Z,283.77
2023-05-12T00:50:51.000Z,283.77
2023-05-12T00:52:57.000Z,283.84
2023-05-12T00:55:48.000Z,283.77
2023-05-12T00:57:15.000Z,283.77
2023-05-12T00:59:21.000Z,283.71
2023-05-12T01:00:47.000Z,283.71
2023-05-12T01:02:53.000Z,283.71
2023-05-12T01:04:20.000Z,283.71
2023-05-12T01:06:26.000Z,283.71
2023-05-12T01:07:53.000Z,283.77
2023-05-12T01:09:59.000Z,283.71
2023-05-12T01:11:25.000Z,283.71
2023-05-12T01:13:31.000Z,283.71
2023-05-12T01:14:58.000Z,283.77
2023-05-12T01:17:04.000Z,283.77
2023-05-12T01:18:31.000Z,283.71
2023-05-12T01:20:37.000Z,283.65
2023-05-12T01:22:03.000Z,283.65
2023-05-12T01:24:09.000Z,283.65
2023-05-12T01:25:36.000Z,283.65
2023-05-12T01:27:42.000Z,283.59
2023-05-12T01:29:09.000Z,283.59
2023-05-12T01:31:15.000Z,283.52
2023-05-12T01:34:10.000Z,283.46
2023-05-12T01:35:36.000Z,283.46
2023-05-12T01:37:42.000Z,283.46
2023-05-12T01:39:09.000Z,283.46
2023-05-12T01:41:15.000Z,283.46
2023-05-12T01:42:41.000Z,283.46
2023-05-12T01:44:47.000Z,283.46
2023-05-12T01:46:14.000Z,283.46
2023-05-12T01:48:20.000Z,283.52
2023-05-12T01:49:47.000Z,283.52
2023-05-12T01:51:53.000Z,283.46
2023-05-12T01:53:19.000Z,283.52
2023-05-12T01:55:25.000Z,283.46
2023-05-12T01:56:52.000Z,283.46
2023-05-12T01:58:58.000Z,283.4
2023-05-12T02:00:24.000Z,283.46
2023-05-12T02:02:31.000Z,283.4
2023-05-12T02:03:57.000Z,283.4
2023-05-12T02:09:55.000Z,283.34
2023-05-12T02:12:47.000Z,283.34
2023-05-12T02:14:13.000Z,283.34
2023-05-12T02:16:19.000Z,283.34
2023-05-12T02:17:46.000Z,283.34
2023-05-12T02:19:52.000Z,283.34
2023-05-12T02:21:19.000Z,283.34
2023-05-12T02:23:25.000Z,283.27
2023-05-12T02:24:51.000Z,283.27
2023-05-12T02:26:57.000Z,283.27
2023-05-12T02:28:24.000Z,283.27
2023-05-12T02:30:30.000Z,283.27
2023-05-12T02:31:56.000Z,283.27
2023-05-12T02:34:03.000Z,283.34
2023-05-12T02:35:31.000Z,283.34
2023-05-12T02:37:37.000Z,283.27
2023-05-12T02:39:03.000Z,283.27
2023-05-12T02:41:09.000Z,283.21
2023-05-12T02:42:36.000Z,283.21
2023-05-12T02:44:42.000Z,283.15
2023-05-12T02:46:09.000Z,283.15
2023-05-12T02:48:15.000Z,283.21
2023-05-12T02:51:06.000Z,283.21
2023-05-12T02:52:33.000Z,283.15
2023-05-12T02:54:39.000Z,283.15
2023-05-12T02:56:05.000Z,283.15
2023-05-12T02:58:11.000Z,283.09
2023-05-12T02:59:38.000Z,283.09
2023-05-12T03:01:44.000Z,283.15
2023-05-12T03:03:11.000Z,283.09
2023-05-12T03:05:17.000Z,283.15
2023-05-12T03:06:44.000Z,283.15
2023-05-12T03:08:50.000Z,283.15
2023-05-12T03:10:16.000Z,283.09
2023-05-12T03:12:23.000Z,283.02
2023-05-12T03:13:49.000Z,283.02
2023-05-12T03:15:55.000Z,283.02
2023-05-12T03:17:22.000Z,282.96
2023-05-12T03:19:28.000Z,283.02
2023-05-12T03:20:55.000Z,283.02
2023-05-12T03:23:01.000Z,283.15
2023-05-12T03:24:27.000Z,283.15
2023-05-12T03:26:34.000Z,283.15
2023-05-12T03:29:25.000Z,283.15
2023-05-12T03:30:51.000Z,283.15
2023-05-12T03:32:57.000Z,283.09
2023-05-12T03:34:24.000Z,283.09
2023-05-12T03:36:30.000Z,283.09
2023-05-12T03:37:57.000Z,283.15
2023-05-12T03:40:03.000Z,283.09
2023-05-12T03:41:29.000Z,283.02
2023-05-12T03:43:36.000Z,283.02
2023-05-12T03:45:02.000Z,282.96
2023-05-12T03:47:08.000Z,283.02
2023-05-12T03:48:35.000Z,283.02
2023-05-12T03:50:41.000Z,283.09
2023-05-12T03:52:07.000Z,283.09
2023-05-12T03:54:13.000Z,283.15
2023-05-12T03:55:40.000Z,283.09
2023-05-12T03:57:46.000Z,283.09
2023-05-12T03:59:13.000Z,283.09
2023-05-12T04:01:19.000Z,283.15
2023-05-12T04:02:45.000Z,283.15
2023-05-12T04:04:52.000Z,283.15
2023-05-12T04:07:43.000Z,283.15
2023-05-12T04:09:10.000Z,283.15
2023-05-12T04:11:16.000Z,283.02
2023-05-12T04:12:43.000Z,283.09
2023-05-12T04:14:49.000Z,283.02
2023-05-12T04:16:16.000Z,283.02
2023-05-12T04:18:22.000Z,283.09
2023-05-12T04:19:49.000Z,283.09
2023-05-12T04:21:55.000Z,283.09
2023-05-12T04:23:21.000Z,283.09
2023-05-12T04:25:27.000Z,283.09
2023-05-12T04:26:54.000Z,283.15
2023-05-12T04:29:00.000Z,283.15
2023-05-12T04:30:26.000Z,283.15
2023-05-12T04:32:33.000Z,283.15
2023-05-12T04:33:59.000Z,283.15
2023-05-12T04:36:05.000Z,283.09
2023-05-12T04:37:32.000Z,283.15
2023-05-12T04:39:38.000Z,283.15
2023-05-12T04:41:04.000Z,283.15
2023-05-12T04:43:11.000Z,283.09
2023-05-12T04:46:49.000Z,283.15
2023-05-12T04:48:15.000Z,283.21
2023-05-12T04:50:21.000Z,283.21
2023-05-12T04:51:48.000Z,283.21
2023-05-12T04:53:54.000Z,283.21
2023-05-12T04:55:21.000Z,283.21
2023-05-12T04:57:27.000Z,283.27
2023-05-12T04:58:53.000Z,283.27
2023-05-12T05:00:59.000Z,283.34
2023-05-12T05:02:26.000Z,283.34
2023-05-12T05:04:32.000Z,283.34
2023-05-12T05:05:59.000Z,283.34
2023-05-12T05:08:05.000Z,283.34
2023-05-12T05:09:31.000Z,283.4
2023-05-12T05:11:40.000Z,283.34
2023-05-12T05:13:07.000Z,283.4
2023-05-12T05:15:13.000Z,283.4
2023-05-12T05:16:39.000Z,283.4
2023-05-12T05:18:45.000Z,283.46
2023-05-12T05:20:12.000Z,283.46
2023-05-12T05:22:19.000Z,283.52
2023-05-12T05:25:11.000Z,283.59
2023-05-12T05:26:37.000Z,283.65
2023-05-12T05:28:43.000Z,283.65
2023-05-12T05:30:10.000Z,283.65
2023-05-12T05:32:16.000Z,283.71
2023-05-12T05:33:42.000Z,283.77
2023-05-12T05:35:48.000Z,283.71
2023-05-12T05:37:15.000Z,283.84
2023-05-12T05:39:21.000Z,283.77
2023-05-12T05:40:48.000Z,283.84
2023-05-12T05:42:58.000Z,283.84
2023-05-12T05:44:25.000Z,283.84
2023-05-12T05:46:31.000Z,283.9
2023-05-12T05:47:57.000Z,283.9
2023-05-12T05:50:04.000Z,283.9
2023-05-12T05:51:30.000Z,284.02
2023-05-12T05:53:36.000Z,283.96
2023-05-12T05:55:03.000Z,284.09
2023-05-12T05:57:09.000Z,284.09
2023-05-12T05:58:35.000Z,284.09
2023-05-12T06:00:41.000Z,284.15
2023-05-12T06:03:33.000Z,284.21
2023-05-12T06:04:59.000Z,284.27
2023-05-12T06:07:05.000Z,284.34
2023-05-12T06:08:32.000Z,284.4
2023-05-12T06:10:38.000Z,284.59
2023-05-12T06:12:05.000Z,284.65
2023-05-12T06:14:11.000Z,284.71
2023-05-12T06:15:37.000Z,284.77
2023-05-12T06:17:43.000Z,284.84
2023-05-12T06:19:10.000Z,284.84
2023-05-12T06:21:16.000Z,284.9
2023-05-12T06:22:43.000Z,284.9
2023-05-12T06:24:49.000Z,284.96
2023-05-12T06:26:15.000Z,285.09
2023-05-12T06:28:21.000Z,285.09
2023-05-12T06:29:48.000Z,285.15
2023-05-12T06:31:54.000Z,285.21
2023-05-12T06:33:20.000Z,285.21
2023-05-12T06:35:27.000Z,285.21
2023-05-12T06:36:53.000Z,285.21
2023-05-12T06:38:59.000Z,285.34
2023-05-12T06:41:50.000Z,285.46
2023-05-12T06:43:17.000Z,285.52
2023-05-12T06:45:23.000Z,285.52
2023-05-12T06:46:49.000Z,285.59
2023-05-12T06:48:55.000Z,285.65
2023-05-12T06:50:22.000Z,285.65
2023-05-12T06:52:28.000Z,285.71
2023-05-12T06:53:55.000Z,285.77
2023-05-12T06:56:01.000Z,285.84
2023-05-12T06:57:27.000Z,285.84
2023-05-12T06:59:33.000Z,285.9
2023-05-12T07:01:00.000Z,285.96
2023-05-12T07:03:06.000Z,285.96
2023-05-12T07:04:33.000Z,285.96
2023-05-12T07:06:39.000Z,286.02
2023-05-12T07:08:05.000Z,286.09
2023-05-12T07:10:11.000Z,286.09
2023-05-12T07:11:38.000Z,286.09
2023-05-12T07:13:44.000Z,286.15
2023-05-12T07:15:10.000Z,286.15
2023-05-12T07:17:17.000Z,286.15
2023-05-12T07:20:08.000Z,286.15
2023-05-12T07:21:34.000Z,286.15
2023-05-12T07:23:40.000Z,286.09
2023-05-12T07:25:07.000Z,286.09
2023-05-12T07:27:13.000Z,286.15
2023-05-12T07:28:39.000Z,286.15
2023-05-12T07:30:46.000Z,286.15
2023-05-12T07:32:12.000Z,286.15
2023-05-12T07:34:18.000Z,286.21
2023-05-12T07:35:45.000Z,286.27
2023-05-12T07:37:51.000Z,286.34
2023-05-12T07:39:17.000Z,286.34
2023-05-12T07:41:23.000Z,286.4
2023-05-12T07:42:50.000Z,286.46
2023-05-12T07:44:56.000Z,286.46
2023-05-12T07:46:23.000Z,286.52
2023-05-12T07:48:29.000Z,286.52
2023-05-12T07:49:55.000Z,286.59
2023-05-12T07:52:02.000Z,286.65
2023-05-12T07:53:28.000Z,286.65
2023-05-12T07:55:34.000Z,286.65
2023-05-12T07:58:25.000Z,286.84
2023-05-12T07:59:52.000Z,286.84
2023-05-12T08:01:58.000Z,286.77
2023-05-12T08:03:25.000Z,286.84
2023-05-12T08:05:31.000Z,286.84
2023-05-12T08:06:58.000Z,286.96
2023-05-12T08:09:04.000Z,287.02
2023-05-12T08:10:30.000Z,287.09
2023-05-12T08:12:36.000Z,287.15
2023-05-12T08:14:03.000Z,287.15
2023-05-12T08:16:09.000Z,287.09
2023-05-12T08:17:35.000Z,287.09
2023-05-12T08:19:42.000Z,287.02
2023-05-12T08:21:08.000Z,287.02
2023-05-12T08:23:14.000Z,287.02
2023-05-12T08:24:41.000Z,287.09
2023-05-12T08:26:47.000Z,287.34
2023-05-12T08:28:14.000Z,287.4
2023-05-12T08:30:20.000Z,287.46
2023-05-12T08:31:47.000Z,287.46
2023-05-12T08:36:48.000Z,287.65
2023-05-12T08:38:15.000Z,287.71
2023-05-12T08:40:21.000Z,287.77
2023-05-12T08:41:47.000Z,287.84
2023-05-12T08:43:53.000Z,287.96
2023-05-12T08:45:20.000Z,287.96
2023-05-12T08:47:26.000Z,287.96
2023-05-12T08:48:53.000Z,288.02
2023-05-12T08:50:59.000Z,288.21
2023-05-12T08:52:25.000Z,288.15
2023-05-12T08:54:32.000Z,288.15
2023-05-12T08:58:13.000Z,288.27
2023-05-12T08:59:39.000Z,288.34
2023-05-12T09:01:45.000Z,288.46
2023-05-12T09:03:12.000Z,288.4
2023-05-12T09:05:18.000Z,288.4
2023-05-12T09:06:45.000Z,288.46
2023-05-12T09:08:51.000Z,288.34
2023-05-12T09:10:18.000Z,288.34
2023-05-12T09:12:38.000Z,288.46
2023-05-12T09:15:30.000Z,288.52
2023-05-12T09:16:56.000Z,288.52
2023-05-12T09:19:03.000Z,288.52
2023-05-12T09:20:31.000Z,288.52
2023-05-12T09:22:38.000Z,288.52
2023-05-12T09:24:04.000Z,288.46
2023-05-12T09:26:10.000Z,288.46
2023-05-12T09:27:37.000Z,288.4
2023-05-12T09:29:43.000Z,288.34
2023-05-12T09:31:23.000Z,288.46
2023-05-12T09:33:30.000Z,288.4
2023-05-12T09:34:56.000Z,288.46
2023-05-12T09:37:02.000Z,288.4
2023-05-12T09:38:29.000Z,288.52
2023-05-12T09:40:35.000Z,288.59
2023-05-12T09:42:01.000Z,288.65
2023-05-12T09:44:07.000Z,288.71
2023-05-12T09:45:34.000Z,288.84
2023-05-12T09:47:40.000Z,288.84
2023-05-12T09:49:07.000Z,288.96
2023-05-12T09:51:13.000Z,288.96
2023-05-12T09:54:05.000Z,289.02
2023-05-12T09:55:32.000Z,289.09
2023-05-12T09:57:38.000Z,289.09
2023-05-12T09:59:05.000Z,289.15
2023-05-12T10:01:11.000Z,289.15
2023-05-12T10:02:48.000Z,289.21
2023-05-12T10:04:54.000Z,289.34
2023-05-12T10:06:20.000Z,289.4
2023-05-12T10:08:27.000Z,289.34
2023-05-12T10:09:53.000Z,289.4
2023-05-12T10:11:59.000Z,289.46
2023-05-12T10:13:26.000Z,289.52
2023-05-12T10:15:32.000Z,289.52
2023-05-12T10:16:58.000Z,289.46
2023-05-12T10:19:05.000Z,289.4
2023-05-12T10:20:31.000Z,289.46
2023-05-12T10:22:37.000Z,289.52
2023-05-12T10:24:04.000Z,289.65
2023-05-12T10:26:10.000Z,289.59
2023-05-12T10:27:37.000Z,289.59
2023-05-12T10:29:43.000Z,289.52
2023-05-12T10:32:34.000Z,289.65
2023-05-12T10:34:01.000Z,289.59
2023-05-12T10:36:07.000Z,289.59
2023-05-12T10:37:33.000Z,289.71
2023-05-12T10:39:39.000Z,289.71
2023-05-12T10:41:06.000Z,289.77
2023-05-12T10:43:12.000Z,289.9
2023-05-12T10:44:39.000Z,290.09
2023-05-12T10:46:45.000Z,290.02
2023-05-12T10:48:11.000Z,290.15
2023-05-12T10:50:18.000Z,290.21
2023-05-12T10:51:44.000Z,290.15
2023-05-12T10:53:50.000Z,290.34
2023-05-12T10:55:19.000Z,290.4
2023-05-12T10:57:25.000Z,290.59
2023-05-12T10:58:52.000Z,290.59
2023-05-12T11:00:59.000Z,290.71
2023-05-12T11:02:27.000Z,290.71
2023-05-12T11:04:34.000Z,290.84
2023-05-12T11:06:02.000Z,290.9
2023-05-12T11:08:09.000Z,290.9
2023-05-12T11:11:01.000Z,291.02
2023-05-12T11:12:27.000Z,291.15
2023-05-12T11:14:34.000Z,291.21
2023-05-12T11:16:00.000Z,291.27
2023-05-12T11:18:07.000Z,291.4
2023-05-12T11:19:33.000Z,291.4
2023-05-12T11:21:39.000Z,291.77
2023-05-12T11:23:06.000Z,291.71
2023-05-12T11:25:12.000Z,291.9
2023-05-12T11:26:38.000Z,291.96
2023-05-12T11:28:45.000Z,291.96
2023-05-12T11:30:11.000Z,291.96
2023-05-12T11:32:17.000Z,292.02
2023-05-12T11:33:44.000Z,292.15
2023-05-12T11:35:50.000Z,292.15
2023-05-12T11:37:16.000Z,292.02
2023-05-12T11:39:22.000Z,291.9
2023-05-12T11:40:49.000Z,291.84
2023-05-12T11:42:55.000Z,291.84
2023-05-12T11:44:21.000Z,292.09
2023-05-12T11:46:28.000Z,292.27
2023-05-12T11:49:19.000Z,292.15
2023-05-12T11:50:45.000Z,292.21
2023-05-12T11:52:52.000Z,292.09
2023-05-12T11:54:18.000Z,291.96
2023-05-12T11:56:24.000Z,291.96
2023-05-12T11:57:51.000Z,292.09
2023-05-12T11:59:57.000Z,292.09
2023-05-12T12:01:23.000Z,291.96
2023-05-12T12:03:30.000Z,291.96
2023-05-12T12:04:56.000Z,291.96
2023-05-12T12:07:02.000Z,291.96
2023-05-12T12:08:29.000Z,291.9
2023-05-12T12:10:35.000Z,291.84
2023-05-12T12:12:02.000Z,291.71
2023-05-12T12:14:08.000Z,291.71
2023-05-12T12:15:34.000Z,291.65
2023-05-12T12:17:40.000Z,291.71
2023-05-12T12:19:07.000Z,291.9
2023-05-12T12:21:13.000Z,292.21
2023-05-12T12:22:43.000Z,292.21
2023-05-12T12:24:49.000Z,292.4
2023-05-12T12:27:40.000Z,292.34
2023-05-12T12:29:06.000Z,292.27
2023-05-12T12:31:12.000Z,292.15
2023-05-12T12:32:39.000Z,292.09
2023-05-12T12:34:45.000Z,292.02
2023-05-12T12:36:12.000Z,291.96
2023-05-12T12:38:18.000Z,291.96
2023-05-12T12:39:44.000Z,291.9
2023-05-12T12:41:50.000Z,291.96
2023-05-12T12:43:17.000Z,291.9
2023-05-12T12:45:23.000Z,291.71
2023-05-12T12:46:50.000Z,291.71
2023-05-12T12:48:57.000Z,291.59
2023-05-12T12:50:23.000Z,291.59
2023-05-12T12:52:31.000Z,291.52
2023-05-12T12:53:58.000Z,291.46
2023-05-12T12:56:04.000Z,291.46
2023-05-12T12:57:30.000Z,291.34
2023-05-12T12:59:36.000Z,291.27
2023-05-12T13:01:03.000Z,291.27
2023-05-12T13:03:09.000Z,291.34
2023-05-12T13:06:01.000Z,291.34
2023-05-12T13:07:27.000Z,291.52
2023-05-12T13:09:33.000Z,291.77
2023-05-12T13:11:00.000Z,291.9
2023-05-12T13:13:06.000Z,291.9
2023-05-12T13:14:33.000Z,291.9
2023-05-12T13:16:39.000Z,291.9
2023-05-12T13:18:05.000Z,291.9
2023-05-12T13:20:11.000Z,291.84
2023-05-12T13:21:38.000Z,291.65
2023-05-12T13:23:44.000Z,291.65
2023-05-12T13:25:11.000Z,291.71
2023-05-12T13:27:17.000Z,291.65
2023-05-12T13:28:43.000Z,291.65
2023-05-12T13:30:49.000Z,291.59
2023-05-12T13:32:16.000Z,291.46
2023-05-12T13:34:22.000Z,291.46
2023-05-12T13:35:48.000Z,291.4
2023-05-12T13:37:55.000Z,291.21
2023-05-12T13:39:21.000Z,291.21
2023-05-12T13:41:27.000Z,291.09
2023-05-12T13:44:19.000Z,290.96
2023-05-12T13:45:45.000Z,290.96
2023-05-12T13:47:51.000Z,291.02
2023-05-12T13:49:18.000Z,291.02
2023-05-12T13:51:24.000Z,290.96
2023-05-12T13:52:51.000Z,290.96
2023-05-12T13:54:57.000Z,290.96
2023-05-12T13:56:23.000Z,290.96
2023-05-12T13:58:29.000Z,290.84
2023-05-12T13:59:56.000Z,290.9
2023-05-12T14:02:02.000Z,290.96
2023-05-12T14:03:29.000Z,290.84
2023-05-12T14:05:35.000Z,290.84
2023-05-12T14:07:02.000Z,290.77
2023-05-12T14:09:09.000Z,290.59
2023-05-12T14:10:35.000Z,290.52
2023-05-12T15:26:57.000Z,289.09
2023-05-12T15:28:23.000Z,288.96
2023-05-12T15:30:30.000Z,288.96
2023-05-12T15:31:56.000Z,288.96
2023-05-12T15:34:02.000Z,288.96
2023-05-12T15:35:29.000Z,288.96
2023-05-12T15:37:35.000Z,288.71
2023-05-12T15:39:01.000Z,288.71
2023-05-12T15:41:07.000Z,288.65
2023-05-12T15:42:34.000Z,288.65
2023-05-12T15:44:40.000Z,288.59
2023-05-12T15:46:07.000Z,288.59
2023-05-12T15:48:13.000Z,288.71
2023-05-12T15:49:39.000Z,288.71
2023-05-12T15:51:46.000Z,288.59
2023-05-12T15:53:12.000Z,288.59
2023-05-12T15:55:18.000Z,288.4
2023-05-12T15:56:45.000Z,288.34
2023-05-12T15:58:51.000Z,288.4
2023-05-12T16:00:18.000Z,288.4
2023-05-12T16:02:24.000Z,288.4
2023-05-12T16:05:15.000Z,288.46
2023-05-12T16:06:42.000Z,288.46
2023-05-12T16:08:48.000Z,288.52
2023-05-12T16:10:14.000Z,288.59
2023-05-12T16:12:20.000Z,288.4
2023-05-12T16:13:47.000Z,288.4
2023-05-12T16:15:53.000Z,288.34
2023-05-12T16:17:20.000Z,288.27
2023-05-12T16:19:26.000Z,288.27
2023-05-12T16:20:52.000Z,288.15
2023-05-12T16:22:58.000Z,288.15
2023-05-12T16:24:25.000Z,288.21
2023-05-12T16:26:31.000Z,288.15
2023-05-12T16:27:58.000Z,288.15
2023-05-12T16:30:04.000Z,288.09
2023-05-12T16:31:30.000Z,287.84
2023-05-12T16:33:36.000Z,287.84
2023-05-12T16:35:03.000Z,287.77
2023-05-12T16:37:09.000Z,287.77
2023-05-12T16:38:35.000Z,287.84
2023-05-12T16:40:42.000Z,287.71
2023-05-12T16:43:33.000Z,287.52
2023-05-12T16:44:59.000Z,287.34
2023-05-12T16:47:05.000Z,287.15
2023-05-12T16:48:32.000Z,287.21
2023-05-12T16:50:38.000Z,287.27
2023-05-12T16:52:05.000Z,287.15
2023-05-12T16:54:11.000Z,287.02
2023-05-12T16:55:37.000Z,287.09
2023-05-12T16:57:43.000Z,287.15
2023-05-12T16:59:10.000Z,287.21
2023-05-12T17:01:16.000Z,287.21
2023-05-12T17:02:43.000Z,287.27
2023-05-12T17:04:49.000Z,287.27
2023-05-12T17:06:15.000Z,287.34
2023-05-12T17:08:22.000Z,287.34
2023-05-12T17:09:48.000Z,287.34
2023-05-12T17:11:54.000Z,287.4
2023-05-12T17:37:13.000Z,287.27
2023-05-12T17:38:58.000Z,287.21
2023-05-12T17:41:04.000Z,287.21
2023-05-12T17:42:31.000Z,287.21
2023-05-12T17:44:37.000Z,287.27
2023-05-12T17:46:04.000Z,287.4
2023-05-12T17:48:10.000Z,287.21
2023-05-12T17:49:36.000Z,287.15
2023-05-12T17:51:42.000Z,287.15
2023-05-12T17:53:09.000Z,287.15
2023-05-12T17:55:15.000Z,287.09
2023-05-12T17:56:42.000Z,287.09
2023-05-12T17:58:48.000Z,287.02
2023-05-12T18:00:14.000Z,287.09
2023-05-12T18:02:20.000Z,287.09
2023-05-12T18:05:12.000Z,287.21
2023-05-12T18:06:38.000Z,287.21
2023-05-12T18:08:44.000Z,287.21
2023-05-12T18:10:11.000Z,287.21
2023-05-12T18:12:17.000Z,287.09
2023-05-12T18:13:43.000Z,287.09
2023-05-12T18:15:50.000Z,287.02
2023-05-12T18:17:16.000Z,286.96
2023-05-12T18:19:22.000Z,286.9
2023-05-12T18:20:49.000Z,286.77
2023-05-12T18:22:55.000Z,286.71
2023-05-12T18:24:21.000Z,286.71
2023-05-12T18:26:28.000Z,286.52
2023-05-12T18:27:54.000Z,286.4
2023-05-12T18:30:00.000Z,286.15
2023-05-12T18:31:27.000Z,286.15
2023-05-12T18:33:33.000Z,286.09
2023-05-12T18:34:59.000Z,286.15
2023-05-12T18:37:05.000Z,286.34
2023-05-12T18:38:32.000Z,286.21
2023-05-12T18:40:38.000Z,285.96
2023-05-12T18:43:29.000Z,285.9
2023-05-12T18:44:56.000Z,285.84
2023-05-12T18:47:02.000Z,285.71
2023-05-12T18:48:28.000Z,285.71
2023-05-12T18:50:34.000Z,285.59
2023-05-12T18:52:01.000Z,285.59
2023-05-12T18:54:07.000Z,285.59
2023-05-12T18:55:33.000Z,285.71
2023-05-12T18:57:40.000Z,285.77
2023-05-12T18:59:06.000Z,285.65
2023-05-12T19:01:12.000Z,285.46
2023-05-12T19:02:39.000Z,285.46
2023-05-12T19:04:45.000Z,285.4
2023-05-12T19:06:12.000Z,285.34
2023-05-12T19:08:18.000Z,285.27
2023-05-12T19:09:44.000Z,285.21
2023-05-12T19:11:50.000Z,285.21
2023-05-12T19:13:17.000Z,285.21
2023-05-12T19:15:23.000Z,285.15
2023-05-12T19:16:49.000Z,285.27
2023-05-12T19:18:56.000Z,285.21
2023-05-12T19:21:47.000Z,285.15
2023-05-12T19:23:13.000Z,285.21
2023-05-12T19:25:19.000Z,285.27
2023-05-12T19:26:46.000Z,285.21
2023-05-12T19:28:53.000Z,285.09
2023-05-12T19:30:19.000Z,285.09
2023-05-12T19:32:25.000Z,285.09
2023-05-12T19:33:52.000Z,285.02
2023-05-12T19:35:58.000Z,284.96
2023-05-12T19:37:24.000Z,285.02
2023-05-12T19:39:30.000Z,284.96
2023-05-12T19:40:57.000Z,284.9
2023-05-12T19:43:03.000Z,284.84
2023-05-12T19:44:29.000Z,284.84
2023-05-12T19:46:36.000Z,284.77
2023-05-12T19:48:02.000Z,284.84
2023-05-12T19:50:08.000Z,284.77
2023-05-12T19:51:35.000Z,284.71
2023-05-12T19:53:41.000Z,284.65
2023-05-12T19:55:08.000Z,284.59
2023-05-12T19:57:14.000Z,284.71
2023-05-12T20:00:05.000Z,284.71
2023-05-12T20:01:32.000Z,284.71
2023-05-12T20:03:38.000Z,284.52
2023-05-12T20:05:04.000Z,284.46
2023-05-12T20:07:10.000Z,284.34
2023-05-12T20:08:37.000Z,284.34
2023-05-12T20:10:43.000Z,284.21
2023-05-12T20:12:09.000Z,284.09
2023-05-12T20:14:16.000Z,284.02
2023-05-12T20:15:42.000Z,284.09
2023-05-12T20:17:48.000Z,284.15
2023-05-12T20:19:15.000Z,284.15
2023-05-12T20:21:21.000Z,283.96
2023-05-12T20:22:48.000Z,283.96
2023-05-12T20:24:54.000Z,283.9
2023-05-12T20:26:21.000Z,283.84
2023-05-12T20:28:27.000Z,283.84
2023-05-12T20:29:54.000Z,283.96
2023-05-12T20:32:00.000Z,283.77
2023-05-12T20:33:26.000Z,283.71
2023-05-12T20:35:32.000Z,283.71
2023-05-12T20:38:24.000Z,283.84
2023-05-12T20:39:50.000Z,283.77
2023-05-12T20:41:56.000Z,283.65
2023-05-12T20:43:23.000Z,283.71
2023-05-12T20:45:29.000Z,283.59
2023-05-12T20:46:55.000Z,283.52
2023-05-12T20:49:02.000Z,283.52
2023-05-12T20:50:28.000Z,283.4
2023-05-12T20:52:34.000Z,283.34
2023-05-12T20:54:01.000Z,283.4
2023-05-12T20:56:07.000Z,283.4
2023-05-12T20:57:35.000Z,283.4
2023-05-12T20:59:41.000Z,283.27
2023-05-12T21:01:07.000Z,283.27
2023-05-12T21:03:13.000Z,283.27
2023-05-12T21:04:40.000Z,283.21
2023-05-12T21:06:46.000Z,283.15
2023-05-12T21:08:13.000Z,283.15
2023-05-12T21:10:19.000Z,283.09
2023-05-12T21:11:46.000Z,283.02
2023-05-12T21:13:52.000Z,282.96
2023-05-12T21:16:43.000Z,282.96
2023-05-12T21:18:09.000Z,282.84
2023-05-12T21:20:16.000Z,282.9
2023-05-12T21:21:42.000Z,282.84
2023-05-12T21:23:48.000Z,282.71
2023-05-12T21:25:15.000Z,282.71
2023-05-12T21:27:21.000Z,282.65
2023-05-12T21:28:48.000Z,282.59
2023-05-12T21:30:54.000Z,282.52
2023-05-12T21:32:20.000Z,282.46
2023-05-12T21:34:26.000Z,282.52
2023-05-12T21:35:53.000Z,282.59
2023-05-12T21:37:59.000Z,282.59
2023-05-12T21:39:25.000Z,282.59
2023-05-12T21:41:32.000Z,282.46
2023-05-12T21:42:58.000Z,282.27
2023-05-12T21:45:04.000Z,282.21
2023-05-12T21:46:31.000Z,282.27
2023-05-12T21:48:37.000Z,282.34
2023-05-12T21:50:04.000Z,282.27
2023-05-12T21:52:10.000Z,282.21
2023-05-12T21:55:01.000Z,282.21
2023-05-12T21:56:27.000Z,282.27
2023-05-12T21:58:33.000Z,282.15
2023-05-12T22:00:00.000Z,282.15
2023-05-12T22:02:06.000Z,282.02
2023-05-12T22:03:33.000Z,282.02
2023-05-12T22:05:39.000Z,281.9
2023-05-12T22:07:05.000Z,281.9
2023-05-12T22:09:11.000Z,281.9
2023-05-12T22:10:38.000Z,282.09
2023-05-12T22:12:44.000Z,282.21
2023-05-12T22:14:11.000Z,282.15
2023-05-12T22:16:17.000Z,281.9
2023-05-12T22:17:50.000Z,281.9
2023-05-12T22:19:56.000Z,281.84
2023-05-12T22:21:23.000Z,281.71
2023-05-12T22:23:29.000Z,281.84
2023-05-12T22:24:55.000Z,281.77
2023-05-12T22:27:01.000Z,281.77
2023-05-12T22:28:28.000Z,281.71
2023-05-12T22:30:34.000Z,281.65
2023-05-12T22:33:25.000Z,281.65
2023-05-12T22:34:52.000Z,281.65
2023-05-12T22:36:58.000Z,281.59
2023-05-12T22:38:25.000Z,281.65
2023-05-12T22:40:31.000Z,281.59
2023-05-12T22:41:57.000Z,281.65
2023-05-12T22:44:03.000Z,281.59
2023-05-12T22:45:30.000Z,281.52
2023-05-12T22:47:36.000Z,281.52
2023-05-12T22:49:02.000Z,281.65
2023-05-12T22:51:09.000Z,281.9
2023-05-12T22:52:35.000Z,282.02
2023-05-12T22:54:41.000Z,282.09
2023-05-12T22:56:08.000Z,282.02
2023-05-12T22:58:14.000Z,281.96
2023-05-12T22:59:40.000Z,281.9
2023-05-12T23:01:46.000Z,281.71
2023-05-12T23:03:13.000Z,281.65
2023-05-12T23:05:19.000Z,281.71
2023-05-12T23:06:45.000Z,281.84
2023-05-12T23:08:52.000Z,281.96
2023-05-12T23:11:43.000Z,281.96
2023-05-12T23:13:09.000Z,282.02
2023-05-12T23:15:15.000Z,282.02
2023-05-12T23:16:42.000Z,282.02
2023-05-12T23:18:48.000Z,282.21
2023-05-12T23:20:15.000Z,282.21
2023-05-12T23:22:21.000Z,282.27
2023-05-12T23:23:47.000Z,282.34
2023-05-12T23:25:53.000Z,282.21
2023-05-12T23:27:20.000Z,282.21
2023-05-12T23:29:26.000Z,282.21
2023-05-12T23:30:53.000Z,282.27
2023-05-12T23:32:59.000Z,282.27
2023-05-12T23:34:25.000Z,282.27
2023-05-12T23:36:32.000Z,282.21
2023-05-12T23:37:58.000Z,282.21
2023-05-12T23:40:04.000Z,282.21
2023-05-12T23:41:31.000Z,282.15
2023-05-12T23:43:37.000Z,282.09
2023-05-12T23:45:03.000Z,282.09
2023-05-12T23:47:09.000Z,282.09
2023-05-12T23:50:00.000Z,282.15
2023-05-12T23:51:27.000Z,282.15
2023-05-12T23:53:33.000Z,281.96
2023-05-12T23:54:59.000Z,281.96
2023-05-12T23:57:05.000Z,281.96
2023-05-12T23:58:32.000Z,282.02
